sensor_id;sensor_type;location;lat;lon;timestamp;P1;durP1;ratioP1;P2;durP2;ratioP2
36191;SDS011;22233;42.708;23.360;2022-12-18T00:01:28;5.55;;;3.22;;
36191;SDS011;22233;42.708;23.360;2022-12-18T00:03:56;5.57;;;3.47;;
36191;SDS011;22233;42.708;23.360;2022-12-18T00:06:22;5.78;;;3.70;;
36191;SDS011;22233;42.708;23.360;2022-12-18T00:08:49;6.37;;;3.77;;
36191;SDS011;22233;42.708;23.360;2022-12-18T00:11:15;7.63;;;4.22;;
36191;SDS011;22233;42.708;23.360;2022-12-18T00:13:46;6.30;;;3.47;;
36191;SDS011;22233;42.708;23.360;2022-12-18T00:16:13;3.15;;;2.53;;
36191;SDS011;22233;42.708;23.360;2022-12-18T00:18:41;5.78;;;3.03;;
36191;SDS011;22233;42.708;23.360;2022-12-18T00:21:08;4.97;;;3.20;;
36191;SDS011;22233;42.708;23.360;2022-12-18T00:23:36;4.78;;;3.38;;
36191;SDS011;22233;42.708;23.360;2022-12-18T00:26:03;6.13;;;3.08;;
36191;SDS011;22233;42.708;23.360;2022-12-18T00:28:31;4.57;;;3.08;;
36191;SDS011;22233;42.708;23.360;2022-12-18T00:31:01;6.05;;;3.25;;
36191;SDS011;22233;42.708;23.360;2022-12-18T00:33:27;5.82;;;3.65;;
36191;SDS011;22233;42.708;23.360;2022-12-18T00:35:53;8.32;;;4.20;;
36191;SDS011;22233;42.708;23.360;2022-12-18T00:38:18;4.40;;;3.13;;
36191;SDS011;22233;42.708;23.360;2022-12-18T00:40:43;6.10;;;3.50;;
36191;SDS011;22233;42.708;23.360;2022-12-18T00:43:09;7.07;;;3.42;;
36191;SDS011;22233;42.708;23.360;2022-12-18T00:45:34;5.32;;;3.50;;
36191;SDS011;22233;42.708;23.360;2022-12-18T00:48:00;9.02;;;4.68;;
36191;SDS011;22233;42.708;23.360;2022-12-18T00:50:25;7.55;;;4.00;;
36191;SDS011;22233;42.708;23.360;2022-12-18T00:52:51;5.00;;;2.88;;
36191;SDS011;22233;42.708;23.360;2022-12-18T00:55:16;6.63;;;3.92;;
36191;SDS011;22233;42.708;23.360;2022-12-18T00:57:42;5.78;;;3.22;;
36191;SDS011;22233;42.708;23.360;2022-12-18T01:00:10;8.38;;;3.80;;
36191;SDS011;22233;42.708;23.360;2022-12-18T01:02:37;5.18;;;3.60;;
36191;SDS011;22233;42.708;23.360;2022-12-18T01:05:02;7.50;;;3.67;;
36191;SDS011;22233;42.708;23.360;2022-12-18T01:07:28;4.95;;;3.42;;
36191;SDS011;22233;42.708;23.360;2022-12-18T01:09:53;5.15;;;3.33;;
36191;SDS011;22233;42.708;23.360;2022-12-18T01:12:19;6.35;;;3.65;;
36191;SDS011;22233;42.708;23.360;2022-12-18T01:14:44;5.05;;;3.28;;
36191;SDS011;22233;42.708;23.360;2022-12-18T01:17:10;7.70;;;4.22;;
36191;SDS011;22233;42.708;23.360;2022-12-18T01:19:35;6.72;;;4.05;;
36191;SDS011;22233;42.708;23.360;2022-12-18T01:22:00;6.07;;;3.75;;
36191;SDS011;22233;42.708;23.360;2022-12-18T01:24:26;6.63;;;3.58;;
36191;SDS011;22233;42.708;23.360;2022-12-18T01:26:51;6.03;;;3.72;;
36191;SDS011;22233;42.708;23.360;2022-12-18T01:29:17;5.45;;;3.83;;
36191;SDS011;22233;42.708;23.360;2022-12-18T01:31:42;5.28;;;4.40;;
36191;SDS011;22233;42.708;23.360;2022-12-18T01:34:08;7.22;;;3.70;;
36191;SDS011;22233;42.708;23.360;2022-12-18T01:36:34;5.75;;;3.40;;
36191;SDS011;22233;42.708;23.360;2022-12-18T01:39:03;7.22;;;4.13;;
36191;SDS011;22233;42.708;23.360;2022-12-18T01:41:35;4.65;;;3.55;;
36191;SDS011;22233;42.708;23.360;2022-12-18T01:47:15;5.97;;;3.65;;
36191;SDS011;22233;42.708;23.360;2022-12-18T01:49:45;7.85;;;4.15;;
36191;SDS011;22233;42.708;23.360;2022-12-18T01:52:11;5.60;;;3.83;;
36191;SDS011;22233;42.708;23.360;2022-12-18T01:54:36;7.57;;;4.03;;
36191;SDS011;22233;42.708;23.360;2022-12-18T01:57:02;7.82;;;3.95;;
36191;SDS011;22233;42.708;23.360;2022-12-18T01:59:28;5.68;;;3.85;;
36191;SDS011;22233;42.708;23.360;2022-12-18T02:01:56;7.65;;;4.57;;
36191;SDS011;22233;42.708;23.360;2022-12-18T02:04:22;6.35;;;3.85;;
36191;SDS011;22233;42.708;23.360;2022-12-18T02:06:51;6.80;;;4.60;;
36191;SDS011;22233;42.708;23.360;2022-12-18T02:09:28;5.13;;;3.45;;
36191;SDS011;22233;42.708;23.360;2022-12-18T02:11:59;5.25;;;3.88;;
36191;SDS011;22233;42.708;23.360;2022-12-18T02:15:19;4.95;;;3.83;;
36191;SDS011;22233;42.708;23.360;2022-12-18T02:17:37;6.50;;;3.95;;
36191;SDS011;22233;42.708;23.360;2022-12-18T02:20:21;6.68;;;4.05;;
36191;SDS011;22233;42.708;23.360;2022-12-18T02:31:21;5.47;;;3.50;;
36191;SDS011;22233;42.708;23.360;2022-12-18T02:33:52;5.00;;;3.45;;
36191;SDS011;22233;42.708;23.360;2022-12-18T02:36:21;4.25;;;3.08;;
36191;SDS011;22233;42.708;23.360;2022-12-18T02:38:48;6.05;;;3.38;;
36191;SDS011;22233;42.708;23.360;2022-12-18T02:41:17;5.40;;;3.38;;
36191;SDS011;22233;42.708;23.360;2022-12-18T02:43:53;4.50;;;3.40;;
36191;SDS011;22233;42.708;23.360;2022-12-18T02:48:54;5.60;;;2.72;;
36191;SDS011;22233;42.708;23.360;2022-12-18T02:51:31;5.60;;;3.25;;
36191;SDS011;22233;42.708;23.360;2022-12-18T02:56:38;3.53;;;2.75;;
36191;SDS011;22233;42.708;23.360;2022-12-18T02:59:15;4.65;;;3.28;;
36191;SDS011;22233;42.708;23.360;2022-12-18T03:04:24;4.70;;;3.53;;
36191;SDS011;22233;42.708;23.360;2022-12-18T03:06:54;5.38;;;3.22;;
36191;SDS011;22233;42.708;23.360;2022-12-18T03:09:31;5.53;;;3.83;;
36191;SDS011;22233;42.708;23.360;2022-12-18T03:12:05;8.40;;;3.90;;
36191;SDS011;22233;42.708;23.360;2022-12-18T03:14:48;4.82;;;3.20;;
36191;SDS011;22233;42.708;23.360;2022-12-18T03:17:30;8.73;;;4.68;;
36191;SDS011;22233;42.708;23.360;2022-12-18T03:19:58;6.47;;;3.53;;
36191;SDS011;22233;42.708;23.360;2022-12-18T03:22:32;5.78;;;3.45;;
36191;SDS011;22233;42.708;23.360;2022-12-18T03:25:00;6.18;;;3.95;;
36191;SDS011;22233;42.708;23.360;2022-12-18T03:27:29;6.38;;;3.58;;
36191;SDS011;22233;42.708;23.360;2022-12-18T03:30:02;6.38;;;3.35;;
36191;SDS011;22233;42.708;23.360;2022-12-18T03:33:05;5.15;;;3.08;;
36191;SDS011;22233;42.708;23.360;2022-12-18T03:35:30;6.32;;;3.50;;
36191;SDS011;22233;42.708;23.360;2022-12-18T03:37:58;5.28;;;3.58;;
36191;SDS011;22233;42.708;23.360;2022-12-18T03:40:26;5.63;;;3.50;;
36191;SDS011;22233;42.708;23.360;2022-12-18T03:43:03;7.15;;;3.70;;
36191;SDS011;22233;42.708;23.360;2022-12-18T03:45:42;6.07;;;3.08;;
36191;SDS011;22233;42.708;23.360;2022-12-18T03:51:01;5.88;;;3.42;;
36191;SDS011;22233;42.708;23.360;2022-12-18T03:53:47;6.78;;;3.47;;
36191;SDS011;22233;42.708;23.360;2022-12-18T03:56:14;4.85;;;3.00;;
36191;SDS011;22233;42.708;23.360;2022-12-18T04:01:08;6.68;;;3.63;;
36191;SDS011;22233;42.708;23.360;2022-12-18T04:03:38;8.50;;;3.83;;
36191;SDS011;22233;42.708;23.360;2022-12-18T04:06:04;7.95;;;4.80;;
36191;SDS011;22233;42.708;23.360;2022-12-18T04:08:31;7.03;;;4.03;;
36191;SDS011;22233;42.708;23.360;2022-12-18T04:10:58;8.18;;;3.40;;
36191;SDS011;22233;42.708;23.360;2022-12-18T04:13:27;6.70;;;3.83;;
36191;SDS011;22233;42.708;23.360;2022-12-18T04:15:54;5.93;;;3.47;;
36191;SDS011;22233;42.708;23.360;2022-12-18T04:18:19;6.53;;;3.65;;
36191;SDS011;22233;42.708;23.360;2022-12-18T04:20:45;6.25;;;3.63;;
36191;SDS011;22233;42.708;23.360;2022-12-18T04:23:10;7.57;;;4.18;;
36191;SDS011;22233;42.708;23.360;2022-12-18T04:25:36;7.28;;;3.92;;
36191;SDS011;22233;42.708;23.360;2022-12-18T04:28:01;6.40;;;4.68;;
36191;SDS011;22233;42.708;23.360;2022-12-18T04:30:26;10.00;;;4.70;;
36191;SDS011;22233;42.708;23.360;2022-12-18T04:32:52;5.95;;;3.85;;
36191;SDS011;22233;42.708;23.360;2022-12-18T04:35:17;5.90;;;3.80;;
36191;SDS011;22233;42.708;23.360;2022-12-18T04:37:42;9.20;;;4.95;;
36191;SDS011;22233;42.708;23.360;2022-12-18T04:40:08;7.50;;;4.70;;
36191;SDS011;22233;42.708;23.360;2022-12-18T04:42:34;6.85;;;4.78;;
36191;SDS011;22233;42.708;23.360;2022-12-18T04:44:59;7.32;;;4.10;;
36191;SDS011;22233;42.708;23.360;2022-12-18T04:47:25;8.23;;;4.47;;
36191;SDS011;22233;42.708;23.360;2022-12-18T04:49:50;7.57;;;4.22;;
36191;SDS011;22233;42.708;23.360;2022-12-18T04:52:15;9.10;;;5.30;;
36191;SDS011;22233;42.708;23.360;2022-12-18T04:54:41;7.95;;;4.57;;
36191;SDS011;22233;42.708;23.360;2022-12-18T04:57:06;5.47;;;4.28;;
36191;SDS011;22233;42.708;23.360;2022-12-18T04:59:32;10.95;;;4.70;;
36191;SDS011;22233;42.708;23.360;2022-12-18T05:01:57;7.40;;;3.83;;
36191;SDS011;22233;42.708;23.360;2022-12-18T05:04:22;8.27;;;3.95;;
36191;SDS011;22233;42.708;23.360;2022-12-18T05:06:48;8.10;;;4.20;;
36191;SDS011;22233;42.708;23.360;2022-12-18T05:09:13;7.00;;;4.50;;
36191;SDS011;22233;42.708;23.360;2022-12-18T05:11:39;6.60;;;5.00;;
36191;SDS011;22233;42.708;23.360;2022-12-18T05:14:04;11.57;;;4.93;;
36191;SDS011;22233;42.708;23.360;2022-12-18T05:16:29;6.50;;;4.57;;
36191;SDS011;22233;42.708;23.360;2022-12-18T05:18:55;9.38;;;4.45;;
36191;SDS011;22233;42.708;23.360;2022-12-18T05:21:20;8.90;;;5.03;;
36191;SDS011;22233;42.708;23.360;2022-12-18T05:23:46;8.82;;;4.75;;
36191;SDS011;22233;42.708;23.360;2022-12-18T05:26:14;10.80;;;5.55;;
36191;SDS011;22233;42.708;23.360;2022-12-18T05:28:42;9.13;;;4.80;;
36191;SDS011;22233;42.708;23.360;2022-12-18T05:31:07;9.02;;;4.68;;
36191;SDS011;22233;42.708;23.360;2022-12-18T05:33:33;6.78;;;4.53;;
36191;SDS011;22233;42.708;23.360;2022-12-18T05:36:00;8.35;;;5.15;;
36191;SDS011;22233;42.708;23.360;2022-12-18T05:38:28;8.85;;;4.95;;
36191;SDS011;22233;42.708;23.360;2022-12-18T05:40:55;9.27;;;5.13;;
36191;SDS011;22233;42.708;23.360;2022-12-18T05:43:21;11.50;;;5.55;;
36191;SDS011;22233;42.708;23.360;2022-12-18T05:45:48;11.77;;;6.15;;
36191;SDS011;22233;42.708;23.360;2022-12-18T05:48:14;13.02;;;5.40;;
36191;SDS011;22233;42.708;23.360;2022-12-18T05:50:41;11.38;;;5.88;;
36191;SDS011;22233;42.708;23.360;2022-12-18T05:53:10;10.82;;;5.63;;
36191;SDS011;22233;42.708;23.360;2022-12-18T05:55:36;13.85;;;6.07;;
36191;SDS011;22233;42.708;23.360;2022-12-18T05:58:04;8.20;;;5.00;;
36191;SDS011;22233;42.708;23.360;2022-12-18T06:00:32;9.90;;;5.68;;
36191;SDS011;22233;42.708;23.360;2022-12-18T06:02:58;8.68;;;4.45;;
36191;SDS011;22233;42.708;23.360;2022-12-18T06:05:24;9.23;;;5.35;;
36191;SDS011;22233;42.708;23.360;2022-12-18T06:07:50;7.63;;;4.95;;
36191;SDS011;22233;42.708;23.360;2022-12-18T06:10:16;9.00;;;5.10;;
36191;SDS011;22233;42.708;23.360;2022-12-18T06:12:41;13.63;;;5.85;;
36191;SDS011;22233;42.708;23.360;2022-12-18T06:15:07;8.98;;;5.60;;
36191;SDS011;22233;42.708;23.360;2022-12-18T06:17:33;8.63;;;5.45;;
36191;SDS011;22233;42.708;23.360;2022-12-18T06:19:59;7.85;;;4.68;;
36191;SDS011;22233;42.708;23.360;2022-12-18T06:22:25;9.32;;;5.25;;
36191;SDS011;22233;42.708;23.360;2022-12-18T06:24:51;10.35;;;5.70;;
36191;SDS011;22233;42.708;23.360;2022-12-18T06:27:16;8.13;;;4.55;;
36191;SDS011;22233;42.708;23.360;2022-12-18T06:29:42;9.30;;;5.35;;
36191;SDS011;22233;42.708;23.360;2022-12-18T06:32:07;11.57;;;5.85;;
36191;SDS011;22233;42.708;23.360;2022-12-18T06:34:33;14.88;;;6.13;;
36191;SDS011;22233;42.708;23.360;2022-12-18T06:36:59;7.57;;;4.40;;
36191;SDS011;22233;42.708;23.360;2022-12-18T06:39:26;8.80;;;5.68;;
36191;SDS011;22233;42.708;23.360;2022-12-18T06:41:52;8.40;;;5.22;;
36191;SDS011;22233;42.708;23.360;2022-12-18T06:44:17;8.15;;;5.07;;
36191;SDS011;22233;42.708;23.360;2022-12-18T06:46:43;9.20;;;5.55;;
36191;SDS011;22233;42.708;23.360;2022-12-18T06:49:08;10.10;;;5.93;;
36191;SDS011;22233;42.708;23.360;2022-12-18T06:51:34;11.15;;;5.70;;
36191;SDS011;22233;42.708;23.360;2022-12-18T06:54:00;9.40;;;5.53;;
36191;SDS011;22233;42.708;23.360;2022-12-18T06:56:26;11.07;;;5.88;;
36191;SDS011;22233;42.708;23.360;2022-12-18T06:58:51;9.80;;;5.20;;
36191;SDS011;22233;42.708;23.360;2022-12-18T07:01:17;11.40;;;5.50;;
36191;SDS011;22233;42.708;23.360;2022-12-18T07:03:43;11.10;;;4.97;;
36191;SDS011;22233;42.708;23.360;2022-12-18T07:06:12;11.05;;;5.28;;
36191;SDS011;22233;42.708;23.360;2022-12-18T07:08:44;8.52;;;4.93;;
36191;SDS011;22233;42.708;23.360;2022-12-18T07:11:10;9.20;;;4.57;;
36191;SDS011;22233;42.708;23.360;2022-12-18T07:13:36;10.27;;;5.30;;
36191;SDS011;22233;42.708;23.360;2022-12-18T07:16:08;7.40;;;5.10;;
36191;SDS011;22233;42.708;23.360;2022-12-18T07:18:35;9.60;;;4.97;;
36191;SDS011;22233;42.708;23.360;2022-12-18T07:21:07;11.52;;;5.57;;
36191;SDS011;22233;42.708;23.360;2022-12-18T07:23:34;8.82;;;5.88;;
36191;SDS011;22233;42.708;23.360;2022-12-18T07:26:10;10.13;;;5.38;;
36191;SDS011;22233;42.708;23.360;2022-12-18T07:28:37;14.43;;;6.57;;
36191;SDS011;22233;42.708;23.360;2022-12-18T07:31:05;11.07;;;5.22;;
36191;SDS011;22233;42.708;23.360;2022-12-18T07:33:32;10.10;;;5.00;;
36191;SDS011;22233;42.708;23.360;2022-12-18T07:36:02;10.88;;;5.35;;
36191;SDS011;22233;42.708;23.360;2022-12-18T07:38:29;9.07;;;5.88;;
36191;SDS011;22233;42.708;23.360;2022-12-18T07:40:59;11.77;;;6.70;;
36191;SDS011;22233;42.708;23.360;2022-12-18T07:43:36;10.82;;;5.45;;
36191;SDS011;22233;42.708;23.360;2022-12-18T07:46:02;8.60;;;5.18;;
36191;SDS011;22233;42.708;23.360;2022-12-18T07:48:28;10.57;;;5.85;;
36191;SDS011;22233;42.708;23.360;2022-12-18T07:50:57;9.40;;;5.82;;
36191;SDS011;22233;42.708;23.360;2022-12-18T07:53:26;12.88;;;6.35;;
36191;SDS011;22233;42.708;23.360;2022-12-18T07:55:58;11.40;;;5.75;;
36191;SDS011;22233;42.708;23.360;2022-12-18T07:58:31;9.30;;;6.53;;
36191;SDS011;22233;42.708;23.360;2022-12-18T08:01:07;7.95;;;5.82;;
36191;SDS011;22233;42.708;23.360;2022-12-18T08:03:34;16.17;;;7.28;;
36191;SDS011;22233;42.708;23.360;2022-12-18T08:06:08;11.07;;;6.40;;
36191;SDS011;22233;42.708;23.360;2022-12-18T08:08:34;13.80;;;6.45;;
36191;SDS011;22233;42.708;23.360;2022-12-18T08:11:01;11.00;;;5.90;;
36191;SDS011;22233;42.708;23.360;2022-12-18T08:13:27;11.15;;;6.68;;
36191;SDS011;22233;42.708;23.360;2022-12-18T08:16:00;11.90;;;6.30;;
36191;SDS011;22233;42.708;23.360;2022-12-18T08:18:27;14.13;;;6.97;;
36191;SDS011;22233;42.708;23.360;2022-12-18T08:20:53;12.63;;;6.15;;
36191;SDS011;22233;42.708;23.360;2022-12-18T08:23:19;12.73;;;6.00;;
36191;SDS011;22233;42.708;23.360;2022-12-18T08:25:45;12.73;;;6.40;;
36191;SDS011;22233;42.708;23.360;2022-12-18T08:28:10;14.38;;;7.55;;
36191;SDS011;22233;42.708;23.360;2022-12-18T08:30:36;10.45;;;6.68;;
36191;SDS011;22233;42.708;23.360;2022-12-18T08:33:02;11.20;;;5.63;;
36191;SDS011;22233;42.708;23.360;2022-12-18T08:35:28;11.60;;;6.00;;
36191;SDS011;22233;42.708;23.360;2022-12-18T08:37:53;10.88;;;6.22;;
36191;SDS011;22233;42.708;23.360;2022-12-18T08:40:19;11.93;;;6.18;;
36191;SDS011;22233;42.708;23.360;2022-12-18T08:42:44;9.52;;;5.65;;
36191;SDS011;22233;42.708;23.360;2022-12-18T08:45:28;10.05;;;6.80;;
36191;SDS011;22233;42.708;23.360;2022-12-18T08:47:54;10.30;;;5.47;;
36191;SDS011;22233;42.708;23.360;2022-12-18T08:50:19;14.70;;;5.50;;
36191;SDS011;22233;42.708;23.360;2022-12-18T08:52:45;8.85;;;5.32;;
36191;SDS011;22233;42.708;23.360;2022-12-18T08:55:10;11.25;;;6.03;;
36191;SDS011;22233;42.708;23.360;2022-12-18T08:57:36;8.60;;;5.18;;
36191;SDS011;22233;42.708;23.360;2022-12-18T09:00:01;11.43;;;5.65;;
36191;SDS011;22233;42.708;23.360;2022-12-18T09:02:28;13.90;;;6.33;;
36191;SDS011;22233;42.708;23.360;2022-12-18T09:04:53;11.32;;;5.53;;
36191;SDS011;22233;42.708;23.360;2022-12-18T09:07:18;10.23;;;4.68;;
36191;SDS011;22233;42.708;23.360;2022-12-18T09:09:44;9.13;;;5.70;;
36191;SDS011;22233;42.708;23.360;2022-12-18T09:12:09;9.27;;;5.03;;
36191;SDS011;22233;42.708;23.360;2022-12-18T09:14:35;12.73;;;6.45;;
36191;SDS011;22233;42.708;23.360;2022-12-18T09:17:01;11.30;;;5.75;;
36191;SDS011;22233;42.708;23.360;2022-12-18T09:19:27;8.18;;;5.15;;
36191;SDS011;22233;42.708;23.360;2022-12-18T09:21:52;11.68;;;5.72;;
36191;SDS011;22233;42.708;23.360;2022-12-18T09:24:17;8.60;;;5.00;;
36191;SDS011;22233;42.708;23.360;2022-12-18T09:26:43;10.93;;;6.30;;
36191;SDS011;22233;42.708;23.360;2022-12-18T09:29:08;10.00;;;5.88;;
36191;SDS011;22233;42.708;23.360;2022-12-18T09:31:34;9.52;;;5.03;;
36191;SDS011;22233;42.708;23.360;2022-12-18T09:34:00;12.05;;;5.65;;
36191;SDS011;22233;42.708;23.360;2022-12-18T09:36:26;13.25;;;6.63;;
36191;SDS011;22233;42.708;23.360;2022-12-18T09:38:51;10.25;;;5.95;;
36191;SDS011;22233;42.708;23.360;2022-12-18T09:43:45;9.38;;;6.22;;
36191;SDS011;22233;42.708;23.360;2022-12-18T09:46:37;9.18;;;5.20;;
36191;SDS011;22233;42.708;23.360;2022-12-18T09:49:05;12.30;;;6.43;;
36191;SDS011;22233;42.708;23.360;2022-12-18T09:51:37;10.20;;;6.15;;
36191;SDS011;22233;42.708;23.360;2022-12-18T09:54:40;8.93;;;5.88;;
36191;SDS011;22233;42.708;23.360;2022-12-18T09:57:06;8.10;;;5.00;;
36191;SDS011;22233;42.708;23.360;2022-12-18T09:59:38;10.70;;;5.57;;
36191;SDS011;22233;42.708;23.360;2022-12-18T10:02:12;8.75;;;5.30;;
36191;SDS011;22233;42.708;23.360;2022-12-18T10:04:40;10.55;;;5.35;;
36191;SDS011;22233;42.708;23.360;2022-12-18T10:07:14;10.57;;;6.18;;
36191;SDS011;22233;42.708;23.360;2022-12-18T10:12:32;10.35;;;5.18;;
36191;SDS011;22233;42.708;23.360;2022-12-18T10:15:50;10.45;;;5.68;;
36191;SDS011;22233;42.708;23.360;2022-12-18T10:18:33;10.73;;;5.75;;
36191;SDS011;22233;42.708;23.360;2022-12-18T10:26:49;10.70;;;5.47;;
36191;SDS011;22233;42.708;23.360;2022-12-18T10:29:15;9.93;;;5.07;;
36191;SDS011;22233;42.708;23.360;2022-12-18T10:31:42;6.50;;;3.72;;
36191;SDS011;22233;42.708;23.360;2022-12-18T10:34:11;9.90;;;5.10;;
36191;SDS011;22233;42.708;23.360;2022-12-18T10:36:42;12.93;;;5.93;;
36191;SDS011;22233;42.708;23.360;2022-12-18T10:39:15;12.55;;;5.78;;
36191;SDS011;22233;42.708;23.360;2022-12-18T10:41:40;9.40;;;5.22;;
36191;SDS011;22233;42.708;23.360;2022-12-18T10:44:16;12.98;;;5.82;;
36191;SDS011;22233;42.708;23.360;2022-12-18T10:46:55;9.98;;;6.38;;
36191;SDS011;22233;42.708;23.360;2022-12-18T10:49:29;9.50;;;5.50;;
36191;SDS011;22233;42.708;23.360;2022-12-18T10:52:04;10.88;;;5.97;;
36191;SDS011;22233;42.708;23.360;2022-12-18T10:54:32;10.35;;;6.28;;
36191;SDS011;22233;42.708;23.360;2022-12-18T11:02:48;16.00;;;6.22;;
36191;SDS011;22233;42.708;23.360;2022-12-18T11:05:25;14.23;;;5.97;;
36191;SDS011;22233;42.708;23.360;2022-12-18T11:07:52;10.68;;;5.20;;
36191;SDS011;22233;42.708;23.360;2022-12-18T11:10:22;7.72;;;4.78;;
36191;SDS011;22233;42.708;23.360;2022-12-18T11:12:54;10.75;;;6.50;;
36191;SDS011;22233;42.708;23.360;2022-12-18T11:15:22;15.10;;;5.75;;
36191;SDS011;22233;42.708;23.360;2022-12-18T11:17:52;8.73;;;5.50;;
36191;SDS011;22233;42.708;23.360;2022-12-18T11:23:00;9.02;;;4.43;;
36191;SDS011;22233;42.708;23.360;2022-12-18T11:25:27;9.73;;;4.95;;
36191;SDS011;22233;42.708;23.360;2022-12-18T11:27:58;12.50;;;6.35;;
36191;SDS011;22233;42.708;23.360;2022-12-18T11:30:26;10.32;;;5.53;;
36191;SDS011;22233;42.708;23.360;2022-12-18T11:33:16;11.43;;;5.90;;
36191;SDS011;22233;42.708;23.360;2022-12-18T11:36:01;12.95;;;6.00;;
36191;SDS011;22233;42.708;23.360;2022-12-18T11:38:30;10.15;;;6.05;;
36191;SDS011;22233;42.708;23.360;2022-12-18T11:41:00;9.77;;;6.43;;
36191;SDS011;22233;42.708;23.360;2022-12-18T11:43:32;8.93;;;5.07;;
36191;SDS011;22233;42.708;23.360;2022-12-18T11:46:12;10.93;;;6.30;;
36191;SDS011;22233;42.708;23.360;2022-12-18T11:48:44;12.50;;;6.05;;
36191;SDS011;22233;42.708;23.360;2022-12-18T11:51:16;11.40;;;6.07;;
36191;SDS011;22233;42.708;23.360;2022-12-18T11:53:57;10.20;;;5.95;;
36191;SDS011;22233;42.708;23.360;2022-12-18T11:56:39;10.38;;;5.60;;
36191;SDS011;22233;42.708;23.360;2022-12-18T12:02:33;9.52;;;5.00;;
36191;SDS011;22233;42.708;23.360;2022-12-18T12:05:14;8.18;;;4.55;;
36191;SDS011;22233;42.708;23.360;2022-12-18T12:10:37;9.95;;;5.53;;
36191;SDS011;22233;42.708;23.360;2022-12-18T12:13:15;12.20;;;5.90;;
36191;SDS011;22233;42.708;23.360;2022-12-18T12:16:29;9.95;;;4.93;;
36191;SDS011;22233;42.708;23.360;2022-12-18T12:21:39;9.77;;;5.55;;
36191;SDS011;22233;42.708;23.360;2022-12-18T12:27:28;10.77;;;5.63;;
36191;SDS011;22233;42.708;23.360;2022-12-18T12:32:31;10.25;;;5.70;;
36191;SDS011;22233;42.708;23.360;2022-12-18T12:35:14;10.48;;;6.55;;
36191;SDS011;22233;42.708;23.360;2022-12-18T12:38:16;12.27;;;5.82;;
36191;SDS011;22233;42.708;23.360;2022-12-18T12:40:45;13.57;;;6.35;;
36191;SDS011;22233;42.708;23.360;2022-12-18T12:46:00;8.65;;;5.88;;
36191;SDS011;22233;42.708;23.360;2022-12-18T12:51:02;10.77;;;6.07;;
36191;SDS011;22233;42.708;23.360;2022-12-18T12:53:34;12.20;;;6.43;;
36191;SDS011;22233;42.708;23.360;2022-12-18T12:56:02;10.30;;;5.43;;
36191;SDS011;22233;42.708;23.360;2022-12-18T13:03:50;11.95;;;5.78;;
36191;SDS011;22233;42.708;23.360;2022-12-18T13:20:40;8.65;;;4.70;;
36191;SDS011;22233;42.708;23.360;2022-12-18T13:34:12;10.25;;;6.03;;
36191;SDS011;22233;42.708;23.360;2022-12-18T13:36:41;9.30;;;5.65;;
36191;SDS011;22233;42.708;23.360;2022-12-18T13:39:52;12.00;;;5.95;;
36191;SDS011;22233;42.708;23.360;2022-12-18T13:47:03;12.40;;;6.18;;
36191;SDS011;22233;42.708;23.360;2022-12-18T13:49:40;11.98;;;6.75;;
36191;SDS011;22233;42.708;23.360;2022-12-18T13:52:19;10.85;;;6.03;;
36191;SDS011;22233;42.708;23.360;2022-12-18T13:54:50;15.65;;;7.93;;
36191;SDS011;22233;42.708;23.360;2022-12-18T13:59:53;18.15;;;7.40;;
36191;SDS011;22233;42.708;23.360;2022-12-18T14:02:26;34.70;;;13.15;;
36191;SDS011;22233;42.708;23.360;2022-12-18T14:04:53;18.85;;;9.10;;
36191;SDS011;22233;42.708;23.360;2022-12-18T14:12:16;16.45;;;8.80;;
36191;SDS011;22233;42.708;23.360;2022-12-18T14:15:05;16.35;;;10.23;;
36191;SDS011;22233;42.708;23.360;2022-12-18T14:17:39;11.57;;;5.75;;
36191;SDS011;22233;42.708;23.360;2022-12-18T14:20:05;55.17;;;20.80;;
36191;SDS011;22233;42.708;23.360;2022-12-18T14:22:42;15.18;;;7.50;;
36191;SDS011;22233;42.708;23.360;2022-12-18T14:27:41;21.77;;;11.90;;
36191;SDS011;22233;42.708;23.360;2022-12-18T14:30:31;13.73;;;7.03;;
36191;SDS011;22233;42.708;23.360;2022-12-18T14:33:01;12.10;;;6.75;;
36191;SDS011;22233;42.708;23.360;2022-12-18T14:35:36;9.38;;;4.55;;
36191;SDS011;22233;42.708;23.360;2022-12-18T14:40:42;7.22;;;4.80;;
36191;SDS011;22233;42.708;23.360;2022-12-18T14:43:11;9.48;;;5.70;;
36191;SDS011;22233;42.708;23.360;2022-12-18T14:45:43;8.57;;;5.55;;
36191;SDS011;22233;42.708;23.360;2022-12-18T14:48:14;12.10;;;6.05;;
36191;SDS011;22233;42.708;23.360;2022-12-18T14:50:40;10.90;;;6.07;;
36191;SDS011;22233;42.708;23.360;2022-12-18T14:53:06;8.60;;;5.57;;
36191;SDS011;22233;42.708;23.360;2022-12-18T14:56:00;8.88;;;5.13;;
36191;SDS011;22233;42.708;23.360;2022-12-18T14:58:26;10.68;;;5.70;;
36191;SDS011;22233;42.708;23.360;2022-12-18T15:00:52;10.00;;;5.32;;
36191;SDS011;22233;42.708;23.360;2022-12-18T15:03:18;9.68;;;5.85;;
36191;SDS011;22233;42.708;23.360;2022-12-18T15:05:46;12.18;;;5.97;;
36191;SDS011;22233;42.708;23.360;2022-12-18T15:08:28;11.75;;;5.70;;
36191;SDS011;22233;42.708;23.360;2022-12-18T15:10:56;11.43;;;6.55;;
36191;SDS011;22233;42.708;23.360;2022-12-18T15:13:22;6.68;;;5.55;;
36191;SDS011;22233;42.708;23.360;2022-12-18T15:15:49;9.60;;;4.80;;
36191;SDS011;22233;42.708;23.360;2022-12-18T15:18:17;8.77;;;5.13;;
36191;SDS011;22233;42.708;23.360;2022-12-18T15:23:20;8.90;;;4.63;;
36191;SDS011;22233;42.708;23.360;2022-12-18T15:25:47;10.68;;;5.38;;
36191;SDS011;22233;42.708;23.360;2022-12-18T15:28:21;8.60;;;5.20;;
36191;SDS011;22233;42.708;23.360;2022-12-18T15:31:00;9.57;;;4.70;;
36191;SDS011;22233;42.708;23.360;2022-12-18T15:33:27;10.10;;;4.88;;
36191;SDS011;22233;42.708;23.360;2022-12-18T15:36:03;12.50;;;5.72;;
36191;SDS011;22233;42.708;23.360;2022-12-18T15:38:30;9.32;;;5.75;;
36191;SDS011;22233;42.708;23.360;2022-12-18T15:40:56;10.90;;;5.38;;
36191;SDS011;22233;42.708;23.360;2022-12-18T15:43:23;9.13;;;5.30;;
36191;SDS011;22233;42.708;23.360;2022-12-18T15:48:32;11.60;;;6.82;;
36191;SDS011;22233;42.708;23.360;2022-12-18T15:50:59;10.98;;;6.05;;
36191;SDS011;22233;42.708;23.360;2022-12-18T15:53:27;9.38;;;5.25;;
36191;SDS011;22233;42.708;23.360;2022-12-18T15:55:55;11.68;;;5.82;;
36191;SDS011;22233;42.708;23.360;2022-12-18T15:58:39;15.30;;;6.10;;
36191;SDS011;22233;42.708;23.360;2022-12-18T16:01:04;15.75;;;6.05;;
36191;SDS011;22233;42.708;23.360;2022-12-18T16:03:30;8.57;;;6.25;;
36191;SDS011;22233;42.708;23.360;2022-12-18T16:05:55;9.43;;;6.50;;
36191;SDS011;22233;42.708;23.360;2022-12-18T16:08:23;11.93;;;5.50;;
36191;SDS011;22233;42.708;23.360;2022-12-18T16:10:48;11.20;;;5.85;;
36191;SDS011;22233;42.708;23.360;2022-12-18T16:13:15;12.52;;;5.80;;
36191;SDS011;22233;42.708;23.360;2022-12-18T16:15:43;8.52;;;5.18;;
36191;SDS011;22233;42.708;23.360;2022-12-18T16:18:09;11.50;;;6.00;;
36191;SDS011;22233;42.708;23.360;2022-12-18T16:20:34;10.57;;;6.70;;
36191;SDS011;22233;42.708;23.360;2022-12-18T16:23:00;13.07;;;6.15;;
36191;SDS011;22233;42.708;23.360;2022-12-18T16:25:27;12.13;;;6.70;;
36191;SDS011;22233;42.708;23.360;2022-12-18T16:27:53;12.13;;;6.40;;
36191;SDS011;22233;42.708;23.360;2022-12-18T16:30:27;14.20;;;6.70;;
36191;SDS011;22233;42.708;23.360;2022-12-18T16:32:55;12.15;;;5.60;;
36191;SDS011;22233;42.708;23.360;2022-12-18T16:35:21;16.85;;;7.38;;
36191;SDS011;22233;42.708;23.360;2022-12-18T16:37:46;13.50;;;7.20;;
36191;SDS011;22233;42.708;23.360;2022-12-18T16:40:13;12.27;;;6.68;;